sensor_id;sensor_type;location;lat;lon;timestamp;P1;durP1;ratioP1;P2;durP2;ratioP2
38123;SDS011;23934;47.998;9.832;2022-07-23T00:02:06;0.25;;;0.25;;
38123;SDS011;23934;47.998;9.832;2022-07-23T00:04:33;1.23;;;0.43;;
38123;SDS011;23934;47.998;9.832;2022-07-23T00:06:59;0.80;;;0.75;;
38123;SDS011;23934;47.998;9.832;2022-07-23T00:09:25;3.05;;;0.73;;
38123;SDS011;23934;47.998;9.832;2022-07-23T00:11:51;3.38;;;1.15;;
38123;SDS011;23934;47.998;9.832;2022-07-23T00:14:17;0.22;;;0.22;;
38123;SDS011;23934;47.998;9.832;2022-07-23T00:16:43;0.80;;;0.80;;
38123;SDS011;23934;47.998;9.832;2022-07-23T00:19:09;0.43;;;0.43;;
38123;SDS011;23934;47.998;9.832;2022-07-23T00:21:35;2.20;;;1.52;;
38123;SDS011;23934;47.998;9.832;2022-07-23T00:24:01;0.10;;;0.10;;
38123;SDS011;23934;47.998;9.832;2022-07-23T00:26:27;2.83;;;0.77;;
38123;SDS011;23934;47.998;9.832;2022-07-23T00:28:53;2.00;;;1.67;;
38123;SDS011;23934;47.998;9.832;2022-07-23T00:31:18;0.30;;;0.30;;
38123;SDS011;23934;47.998;9.832;2022-07-23T00:33:44;0.60;;;0.60;;
38123;SDS011;23934;47.998;9.832;2022-07-23T00:36:10;0.43;;;0.43;;
38123;SDS011;23934;47.998;9.832;2022-07-23T00:38:36;0.20;;;0.20;;
38123;SDS011;23934;47.998;9.832;2022-07-23T00:41:02;2.72;;;1.67;;
38123;SDS011;23934;47.998;9.832;2022-07-23T00:43:28;0.73;;;0.73;;
38123;SDS011;23934;47.998;9.832;2022-07-23T00:45:54;0.98;;;0.98;;
38123;SDS011;23934;47.998;9.832;2022-07-23T00:48:20;0.68;;;0.47;;
38123;SDS011;23934;47.998;9.832;2022-07-23T00:50:46;0.15;;;0.15;;
38123;SDS011;23934;47.998;9.832;2022-07-23T00:53:12;0.45;;;0.40;;
38123;SDS011;23934;47.998;9.832;2022-07-23T00:55:38;0.68;;;0.68;;
38123;SDS011;23934;47.998;9.832;2022-07-23T00:58:04;0.28;;;0.28;;
38123;SDS011;23934;47.998;9.832;2022-07-23T01:00:31;5.88;;;1.35;;
38123;SDS011;23934;47.998;9.832;2022-07-23T01:02:57;5.45;;;1.75;;
38123;SDS011;23934;47.998;9.832;2022-07-23T01:05:23;0.45;;;0.45;;
38123;SDS011;23934;47.998;9.832;2022-07-23T01:07:49;1.42;;;0.90;;
38123;SDS011;23934;47.998;9.832;2022-07-23T01:10:16;0.55;;;0.55;;
38123;SDS011;23934;47.998;9.832;2022-07-23T01:13:02;0.52;;;0.52;;
38123;SDS011;23934;47.998;9.832;2022-07-23T01:15:28;0.17;;;0.17;;
38123;SDS011;23934;47.998;9.832;2022-07-23T01:17:55;0.55;;;0.55;;
38123;SDS011;23934;47.998;9.832;2022-07-23T01:20:21;1.17;;;1.02;;
38123;SDS011;23934;47.998;9.832;2022-07-23T01:22:47;2.10;;;1.85;;
38123;SDS011;23934;47.998;9.832;2022-07-23T01:25:14;1.30;;;0.75;;
38123;SDS011;23934;47.998;9.832;2022-07-23T01:27:40;0.20;;;0.20;;
38123;SDS011;23934;47.998;9.832;2022-07-23T01:30:06;2.65;;;1.13;;
38123;SDS011;23934;47.998;9.832;2022-07-23T01:32:32;0.90;;;0.90;;
38123;SDS011;23934;47.998;9.832;2022-07-23T01:34:58;0.45;;;0.45;;
38123;SDS011;23934;47.998;9.832;2022-07-23T01:37:24;0.00;;;0.00;;
38123;SDS011;23934;47.998;9.832;2022-07-23T01:39:50;0.00;;;0.00;;
38123;SDS011;23934;47.998;9.832;2022-07-23T01:42:16;0.98;;;0.50;;
38123;SDS011;23934;47.998;9.832;2022-07-23T01:44:42;3.80;;;1.73;;
38123;SDS011;23934;47.998;9.832;2022-07-23T01:47:08;0.93;;;0.63;;
38123;SDS011;23934;47.998;9.832;2022-07-23T01:49:34;1.48;;;0.98;;
38123;SDS011;23934;47.998;9.832;2022-07-23T01:52:00;0.22;;;0.20;;
38123;SDS011;23934;47.998;9.832;2022-07-23T01:54:27;0.75;;;0.70;;
38123;SDS011;23934;47.998;9.832;2022-07-23T01:56:53;0.80;;;0.80;;
38123;SDS011;23934;47.998;9.832;2022-07-23T01:59:37;1.20;;;0.85;;
38123;SDS011;23934;47.998;9.832;2022-07-23T02:02:04;0.30;;;0.30;;
38123;SDS011;23934;47.998;9.832;2022-07-23T02:04:30;0.47;;;0.30;;
38123;SDS011;23934;47.998;9.832;2022-07-23T02:06:58;0.20;;;0.20;;
38123;SDS011;23934;47.998;9.832;2022-07-23T02:09:24;0.50;;;0.50;;
38123;SDS011;23934;47.998;9.832;2022-07-23T02:11:50;0.60;;;0.60;;
38123;SDS011;23934;47.998;9.832;2022-07-23T02:14:16;0.55;;;0.55;;
38123;SDS011;23934;47.998;9.832;2022-07-23T02:16:41;1.38;;;0.65;;
38123;SDS011;23934;47.998;9.832;2022-07-23T02:19:07;0.63;;;0.55;;
38123;SDS011;23934;47.998;9.832;2022-07-23T02:21:33;0.40;;;0.40;;
38123;SDS011;23934;47.998;9.832;2022-07-23T02:24:00;0.60;;;0.57;;
38123;SDS011;23934;47.998;9.832;2022-07-23T02:26:26;5.25;;;0.77;;
38123;SDS011;23934;47.998;9.832;2022-07-23T02:28:52;0.10;;;0.10;;
38123;SDS011;23934;47.998;9.832;2022-07-23T02:31:18;0.60;;;0.60;;
38123;SDS011;23934;47.998;9.832;2022-07-23T02:33:44;0.75;;;0.70;;
38123;SDS011;23934;47.998;9.832;2022-07-23T02:36:10;0.10;;;0.10;;
38123;SDS011;23934;47.998;9.832;2022-07-23T02:38:36;0.73;;;0.73;;
38123;SDS011;23934;47.998;9.832;2022-07-23T02:41:02;1.85;;;0.63;;
38123;SDS011;23934;47.998;9.832;2022-07-23T02:43:28;0.00;;;0.00;;
38123;SDS011;23934;47.998;9.832;2022-07-23T02:45:54;0.22;;;0.22;;
38123;SDS011;23934;47.998;9.832;2022-07-23T02:48:20;2.22;;;1.45;;
38123;SDS011;23934;47.998;9.832;2022-07-23T02:50:46;0.05;;;0.05;;
38123;SDS011;23934;47.998;9.832;2022-07-23T02:53:11;0.60;;;0.60;;
38123;SDS011;23934;47.998;9.832;2022-07-23T02:55:37;0.10;;;0.10;;
38123;SDS011;23934;47.998;9.832;2022-07-23T02:58:03;0.22;;;0.20;;
38123;SDS011;23934;47.998;9.832;2022-07-23T03:00:29;0.32;;;0.32;;
38123;SDS011;23934;47.998;9.832;2022-07-23T03:02:55;0.15;;;0.15;;
38123;SDS011;23934;47.998;9.832;2022-07-23T03:05:21;1.10;;;1.05;;
38123;SDS011;23934;47.998;9.832;2022-07-23T03:07:53;2.80;;;1.10;;
38123;SDS011;23934;47.998;9.832;2022-07-23T03:12:45;0.17;;;0.17;;
38123;SDS011;23934;47.998;9.832;2022-07-23T03:15:11;0.38;;;0.25;;
38123;SDS011;23934;47.998;9.832;2022-07-23T03:17:37;0.65;;;0.63;;
38123;SDS011;23934;47.998;9.832;2022-07-23T03:20:03;8.43;;;0.68;;
38123;SDS011;23934;47.998;9.832;2022-07-23T03:22:29;0.15;;;0.15;;
38123;SDS011;23934;47.998;9.832;2022-07-23T03:24:55;0.68;;;0.68;;
38123;SDS011;23934;47.998;9.832;2022-07-23T03:27:21;23.33;;;1.83;;
38123;SDS011;23934;47.998;9.832;2022-07-23T03:29:48;0.00;;;0.00;;
38123;SDS011;23934;47.998;9.832;2022-07-23T03:32:14;0.10;;;0.10;;
38123;SDS011;23934;47.998;9.832;2022-07-23T03:34:40;0.10;;;0.10;;
38123;SDS011;23934;47.998;9.832;2022-07-23T03:37:06;0.00;;;0.00;;
38123;SDS011;23934;47.998;9.832;2022-07-23T03:39:32;1.00;;;0.95;;
38123;SDS011;23934;47.998;9.832;2022-07-23T03:41:57;1.00;;;0.95;;
38123;SDS011;23934;47.998;9.832;2022-07-23T03:44:23;1.20;;;1.10;;
38123;SDS011;23934;47.998;9.832;2022-07-23T03:46:49;0.28;;;0.28;;
38123;SDS011;23934;47.998;9.832;2022-07-23T03:49:15;0.93;;;0.82;;
38123;SDS011;23934;47.998;9.832;2022-07-23T03:51:41;3.72;;;0.85;;
38123;SDS011;23934;47.998;9.832;2022-07-23T03:54:07;0.03;;;0.03;;
38123;SDS011;23934;47.998;9.832;2022-07-23T03:56:33;0.30;;;0.30;;
38123;SDS011;23934;47.998;9.832;2022-07-23T03:58:59;10.02;;;1.25;;
38123;SDS011;23934;47.998;9.832;2022-07-23T04:01:26;0.28;;;0.28;;
38123;SDS011;23934;47.998;9.832;2022-07-23T04:03:52;1.08;;;0.75;;
38123;SDS011;23934;47.998;9.832;2022-07-23T04:06:18;0.17;;;0.17;;
38123;SDS011;23934;47.998;9.832;2022-07-23T04:08:44;0.20;;;0.20;;
38123;SDS011;23934;47.998;9.832;2022-07-23T04:11:10;0.82;;;0.65;;
38123;SDS011;23934;47.998;9.832;2022-07-23T04:13:36;0.30;;;0.30;;
38123;SDS011;23934;47.998;9.832;2022-07-23T04:16:02;0.10;;;0.10;;
38123;SDS011;23934;47.998;9.832;2022-07-23T04:18:28;0.03;;;0.03;;
38123;SDS011;23934;47.998;9.832;2022-07-23T04:20:54;3.95;;;1.08;;
38123;SDS011;23934;47.998;9.832;2022-07-23T04:23:20;1.02;;;0.95;;
38123;SDS011;23934;47.998;9.832;2022-07-23T04:25:46;0.80;;;0.63;;
38123;SDS011;23934;47.998;9.832;2022-07-23T04:28:12;0.30;;;0.30;;
38123;SDS011;23934;47.998;9.832;2022-07-23T04:30:38;7.43;;;1.98;;
38123;SDS011;23934;47.998;9.832;2022-07-23T04:33:04;2.30;;;1.08;;
38123;SDS011;23934;47.998;9.832;2022-07-23T04:35:31;1.08;;;0.65;;
38123;SDS011;23934;47.998;9.832;2022-07-23T04:37:57;0.77;;;0.77;;
38123;SDS011;23934;47.998;9.832;2022-07-23T04:40:24;0.13;;;0.13;;
38123;SDS011;23934;47.998;9.832;2022-07-23T04:42:50;1.65;;;1.27;;
38123;SDS011;23934;47.998;9.832;2022-07-23T04:45:16;0.57;;;0.57;;
38123;SDS011;23934;47.998;9.832;2022-07-23T04:47:42;0.60;;;0.47;;
38123;SDS011;23934;47.998;9.832;2022-07-23T04:50:08;0.80;;;0.45;;
38123;SDS011;23934;47.998;9.832;2022-07-23T04:52:34;0.28;;;0.28;;
38123;SDS011;23934;47.998;9.832;2022-07-23T04:55:00;1.95;;;1.77;;
38123;SDS011;23934;47.998;9.832;2022-07-23T04:57:26;0.45;;;0.45;;
38123;SDS011;23934;47.998;9.832;2022-07-23T04:59:52;2.40;;;1.50;;
38123;SDS011;23934;47.998;9.832;2022-07-23T05:02:17;0.68;;;0.43;;
38123;SDS011;23934;47.998;9.832;2022-07-23T05:04:43;0.93;;;0.85;;
38123;SDS011;23934;47.998;9.832;2022-07-23T05:07:09;0.77;;;0.77;;
38123;SDS011;23934;47.998;9.832;2022-07-23T05:09:35;0.95;;;0.77;;
38123;SDS011;23934;47.998;9.832;2022-07-23T05:12:01;0.00;;;0.00;;
38123;SDS011;23934;47.998;9.832;2022-07-23T05:14:27;1.45;;;0.70;;
38123;SDS011;23934;47.998;9.832;2022-07-23T05:16:53;0.20;;;0.20;;
38123;SDS011;23934;47.998;9.832;2022-07-23T05:19:20;2.92;;;1.45;;
38123;SDS011;23934;47.998;9.832;2022-07-23T05:21:46;2.60;;;0.98;;
38123;SDS011;23934;47.998;9.832;2022-07-23T05:24:12;2.38;;;0.70;;
38123;SDS011;23934;47.998;9.832;2022-07-23T05:26:38;0.10;;;0.10;;
38123;SDS011;23934;47.998;9.832;2022-07-23T05:29:04;1.98;;;1.05;;
38123;SDS011;23934;47.998;9.832;2022-07-23T05:31:29;0.75;;;0.68;;
38123;SDS011;23934;47.998;9.832;2022-07-23T05:33:55;1.00;;;0.80;;
38123;SDS011;23934;47.998;9.832;2022-07-23T05:36:21;0.50;;;0.40;;
38123;SDS011;23934;47.998;9.832;2022-07-23T05:38:47;0.10;;;0.10;;
38123;SDS011;23934;47.998;9.832;2022-07-23T05:41:13;17.73;;;1.55;;
38123;SDS011;23934;47.998;9.832;2022-07-23T05:43:39;3.85;;;1.55;;
38123;SDS011;23934;47.998;9.832;2022-07-23T05:46:05;1.65;;;0.93;;
38123;SDS011;23934;47.998;9.832;2022-07-23T05:48:31;0.60;;;0.32;;
38123;SDS011;23934;47.998;9.832;2022-07-23T05:50:57;0.10;;;0.10;;
38123;SDS011;23934;47.998;9.832;2022-07-23T05:53:23;0.28;;;0.28;;
38123;SDS011;23934;47.998;9.832;2022-07-23T05:55:49;0.15;;;0.15;;
38123;SDS011;23934;47.998;9.832;2022-07-23T05:58:15;0.15;;;0.15;;
38123;SDS011;23934;47.998;9.832;2022-07-23T06:00:41;1.65;;;1.38;;
38123;SDS011;23934;47.998;9.832;2022-07-23T06:03:07;0.35;;;0.35;;
38123;SDS011;23934;47.998;9.832;2022-07-23T06:05:33;0.60;;;0.52;;
38123;SDS011;23934;47.998;9.832;2022-07-23T06:07:59;0.25;;;0.25;;
38123;SDS011;23934;47.998;9.832;2022-07-23T06:10:25;0.52;;;0.52;;
38123;SDS011;23934;47.998;9.832;2022-07-23T06:12:51;0.47;;;0.47;;
38123;SDS011;23934;47.998;9.832;2022-07-23T06:15:17;0.85;;;0.85;;
38123;SDS011;23934;47.998;9.832;2022-07-23T06:17:43;1.50;;;1.40;;
38123;SDS011;23934;47.998;9.832;2022-07-23T06:20:09;1.65;;;0.85;;
38123;SDS011;23934;47.998;9.832;2022-07-23T06:22:35;0.13;;;0.13;;
38123;SDS011;23934;47.998;9.832;2022-07-23T06:25:02;0.00;;;0.00;;
38123;SDS011;23934;47.998;9.832;2022-07-23T06:27:28;0.38;;;0.38;;
38123;SDS011;23934;47.998;9.832;2022-07-23T06:29:54;0.90;;;0.90;;
38123;SDS011;23934;47.998;9.832;2022-07-23T06:32:20;1.05;;;0.98;;
38123;SDS011;23934;47.998;9.832;2022-07-23T06:34:46;0.38;;;0.38;;
38123;SDS011;23934;47.998;9.832;2022-07-23T06:37:12;1.95;;;1.10;;
38123;SDS011;23934;47.998;9.832;2022-07-23T06:39:38;0.38;;;0.22;;
38123;SDS011;23934;47.998;9.832;2022-07-23T06:42:04;0.95;;;0.50;;
38123;SDS011;23934;47.998;9.832;2022-07-23T06:44:30;1.10;;;1.00;;
38123;SDS011;23934;47.998;9.832;2022-07-23T06:46:56;0.20;;;0.20;;
38123;SDS011;23934;47.998;9.832;2022-07-23T06:49:22;10.95;;;3.90;;
38123;SDS011;23934;47.998;9.832;2022-07-23T06:51:48;0.00;;;0.00;;
38123;SDS011;23934;47.998;9.832;2022-07-23T06:54:14;2.05;;;0.95;;
38123;SDS011;23934;47.998;9.832;2022-07-23T06:56:40;1.15;;;0.88;;
38123;SDS011;23934;47.998;9.832;2022-07-23T06:59:07;0.00;;;0.00;;
38123;SDS011;23934;47.998;9.832;2022-07-23T07:01:33;1.80;;;0.98;;
38123;SDS011;23934;47.998;9.832;2022-07-23T07:03:59;0.22;;;0.22;;
38123;SDS011;23934;47.998;9.832;2022-07-23T07:06:25;1.27;;;1.15;;
38123;SDS011;23934;47.998;9.832;2022-07-23T07:08:51;0.63;;;0.57;;
38123;SDS011;23934;47.998;9.832;2022-07-23T07:11:17;0.00;;;0.00;;
38123;SDS011;23934;47.998;9.832;2022-07-23T07:13:43;0.40;;;0.40;;
38123;SDS011;23934;47.998;9.832;2022-07-23T07:16:09;0.30;;;0.30;;
38123;SDS011;23934;47.998;9.832;2022-07-23T07:18:35;0.45;;;0.45;;
38123;SDS011;23934;47.998;9.832;2022-07-23T07:21:01;1.65;;;1.13;;
38123;SDS011;23934;47.998;9.832;2022-07-23T07:23:27;1.15;;;0.55;;
38123;SDS011;23934;47.998;9.832;2022-07-23T07:25:53;0.65;;;0.65;;
38123;SDS011;23934;47.998;9.832;2022-07-23T07:28:19;0.20;;;0.20;;
38123;SDS011;23934;47.998;9.832;2022-07-23T07:30:44;1.98;;;1.30;;
38123;SDS011;23934;47.998;9.832;2022-07-23T07:33:10;0.32;;;0.32;;
38123;SDS011;23934;47.998;9.832;2022-07-23T07:35:36;0.77;;;0.75;;
38123;SDS011;23934;47.998;9.832;2022-07-23T07:38:02;1.17;;;1.08;;
38123;SDS011;23934;47.998;9.832;2022-07-23T07:40:28;0.80;;;0.80;;
38123;SDS011;23934;47.998;9.832;2022-07-23T07:42:54;0.45;;;0.45;;
38123;SDS011;23934;47.998;9.832;2022-07-23T07:45:22;0.98;;;0.68;;
38123;SDS011;23934;47.998;9.832;2022-07-23T07:47:48;3.03;;;0.63;;
38123;SDS011;23934;47.998;9.832;2022-07-23T07:50:14;0.20;;;0.20;;
38123;SDS011;23934;47.998;9.832;2022-07-23T07:52:40;1.17;;;1.08;;
38123;SDS011;23934;47.998;9.832;2022-07-23T07:55:07;0.60;;;0.55;;
38123;SDS011;23934;47.998;9.832;2022-07-23T07:57:33;0.20;;;0.20;;
38123;SDS011;23934;47.998;9.832;2022-07-23T07:59:59;1.95;;;0.95;;
38123;SDS011;23934;47.998;9.832;2022-07-23T08:02:26;0.22;;;0.22;;
38123;SDS011;23934;47.998;9.832;2022-07-23T08:04:52;1.10;;;0.57;;
38123;SDS011;23934;47.998;9.832;2022-07-23T08:07:18;0.00;;;0.00;;
38123;SDS011;23934;47.998;9.832;2022-07-23T08:09:44;0.47;;;0.35;;
38123;SDS011;23934;47.998;9.832;2022-07-23T08:12:10;0.10;;;0.10;;
38123;SDS011;23934;47.998;9.832;2022-07-23T08:14:36;1.02;;;1.02;;
38123;SDS011;23934;47.998;9.832;2022-07-23T08:17:02;0.80;;;0.80;;
38123;SDS011;23934;47.998;9.832;2022-07-23T08:19:28;0.60;;;0.60;;
38123;SDS011;23934;47.998;9.832;2022-07-23T08:21:54;0.88;;;0.80;;
38123;SDS011;23934;47.998;9.832;2022-07-23T08:24:20;0.90;;;0.85;;
38123;SDS011;23934;47.998;9.832;2022-07-23T08:26:46;1.30;;;1.20;;
38123;SDS011;23934;47.998;9.832;2022-07-23T08:29:12;0.63;;;0.63;;
38123;SDS011;23934;47.998;9.832;2022-07-23T08:31:38;0.43;;;0.43;;
38123;SDS011;23934;47.998;9.832;2022-07-23T08:34:05;1.67;;;0.80;;
38123;SDS011;23934;47.998;9.832;2022-07-23T08:36:31;2.08;;;1.30;;
38123;SDS011;23934;47.998;9.832;2022-07-23T08:38:57;0.52;;;0.50;;
38123;SDS011;23934;47.998;9.832;2022-07-23T08:41:24;2.28;;;1.10;;
38123;SDS011;23934;47.998;9.832;2022-07-23T08:43:50;0.20;;;0.20;;
38123;SDS011;23934;47.998;9.832;2022-07-23T08:46:16;0.73;;;0.70;;
38123;SDS011;23934;47.998;9.832;2022-07-23T08:48:42;0.60;;;0.60;;
38123;SDS011;23934;47.998;9.832;2022-07-23T08:51:08;0.82;;;0.82;;
38123;SDS011;23934;47.998;9.832;2022-07-23T08:53:35;1.98;;;1.27;;
38123;SDS011;23934;47.998;9.832;2022-07-23T08:56:03;13.00;;;1.52;;
38123;SDS011;23934;47.998;9.832;2022-07-23T08:58:29;1.08;;;0.30;;
38123;SDS011;23934;47.998;9.832;2022-07-23T09:00:56;0.20;;;0.20;;
38123;SDS011;23934;47.998;9.832;2022-07-23T09:03:23;12.00;;;2.97;;
38123;SDS011;23934;47.998;9.832;2022-07-23T09:05:52;0.50;;;0.43;;
38123;SDS011;23934;47.998;9.832;2022-07-23T09:08:21;0.20;;;0.20;;
38123;SDS011;23934;47.998;9.832;2022-07-23T09:10:55;0.60;;;0.52;;
38123;SDS011;23934;47.998;9.832;2022-07-23T09:15:48;0.30;;;0.30;;
38123;SDS011;23934;47.998;9.832;2022-07-23T09:18:15;5.47;;;1.85;;
38123;SDS011;23934;47.998;9.832;2022-07-23T09:20:41;0.75;;;0.55;;
38123;SDS011;23934;47.998;9.832;2022-07-23T09:23:08;0.40;;;0.40;;
38123;SDS011;23934;47.998;9.832;2022-07-23T09:25:34;8.82;;;2.85;;
38123;SDS011;23934;47.998;9.832;2022-07-23T09:28:00;0.63;;;0.63;;
38123;SDS011;23934;47.998;9.832;2022-07-23T09:30:28;11.57;;;4.55;;
38123;SDS011;23934;47.998;9.832;2022-07-23T09:33:04;9.00;;;4.10;;
38123;SDS011;23934;47.998;9.832;2022-07-23T09:38:09;19.58;;;7.88;;
38123;SDS011;23934;47.998;9.832;2022-07-23T09:40:35;15.57;;;8.93;;
38123;SDS011;23934;47.998;9.832;2022-07-23T09:43:01;17.23;;;9.30;;
38123;SDS011;23934;47.998;9.832;2022-07-23T09:45:27;17.95;;;8.35;;
38123;SDS011;23934;47.998;9.832;2022-07-23T09:48:09;18.15;;;9.52;;
38123;SDS011;23934;47.998;9.832;2022-07-23T09:50:36;18.15;;;8.82;;
38123;SDS011;23934;47.998;9.832;2022-07-23T09:53:02;14.45;;;8.52;;
38123;SDS011;23934;47.998;9.832;2022-07-23T09:55:34;18.17;;;9.30;;
38123;SDS011;23934;47.998;9.832;2022-07-23T09:58:05;14.48;;;8.05;;
38123;SDS011;23934;47.998;9.832;2022-07-23T10:00:37;17.52;;;8.35;;
38123;SDS011;23934;47.998;9.832;2022-07-23T10:03:03;16.10;;;8.05;;
38123;SDS011;23934;47.998;9.832;2022-07-23T10:05:31;19.33;;;8.98;;
38123;SDS011;23934;47.998;9.832;2022-07-23T10:08:00;13.85;;;8.57;;
38123;SDS011;23934;47.998;9.832;2022-07-23T10:10:27;19.20;;;8.95;;
38123;SDS011;23934;47.998;9.832;2022-07-23T10:12:54;15.00;;;8.73;;
38123;SDS011;23934;47.998;9.832;2022-07-23T10:15:40;17.35;;;8.05;;
38123;SDS011;23934;47.998;9.832;2022-07-23T10:18:06;13.07;;;8.43;;
38123;SDS011;23934;47.998;9.832;2022-07-23T10:20:32;14.13;;;7.80;;
38123;SDS011;23934;47.998;9.832;2022-07-23T10:23:04;19.17;;;7.80;;
38123;SDS011;23934;47.998;9.832;2022-07-23T10:25:40;16.10;;;8.88;;
38123;SDS011;23934;47.998;9.832;2022-07-23T10:30:56;15.73;;;8.82;;
38123;SDS011;23934;47.998;9.832;2022-07-23T10:36:07;20.80;;;9.02;;
38123;SDS011;23934;47.998;9.832;2022-07-23T10:41:10;14.55;;;8.05;;
38123;SDS011;23934;47.998;9.832;2022-07-23T10:43:36;14.70;;;8.68;;
38123;SDS011;23934;47.998;9.832;2022-07-23T10:46:21;18.02;;;8.80;;
38123;SDS011;23934;47.998;9.832;2022-07-23T10:54:29;15.18;;;8.23;;
38123;SDS011;23934;47.998;9.832;2022-07-23T10:59:23;15.32;;;8.80;;
38123;SDS011;23934;47.998;9.832;2022-07-23T11:01:49;18.63;;;8.18;;
38123;SDS011;23934;47.998;9.832;2022-07-23T11:04:15;18.48;;;8.55;;
38123;SDS011;23934;47.998;9.832;2022-07-23T11:09:23;16.17;;;9.18;;
38123;SDS011;23934;47.998;9.832;2022-07-23T11:12:12;15.02;;;8.70;;
38123;SDS011;23934;47.998;9.832;2022-07-23T11:17:21;19.45;;;9.13;;
38123;SDS011;23934;47.998;9.832;2022-07-23T11:22:39;17.42;;;8.98;;
38123;SDS011;23934;47.998;9.832;2022-07-23T11:25:05;20.20;;;9.05;;
38123;SDS011;23934;47.998;9.832;2022-07-23T11:27:38;16.70;;;8.63;;
38123;SDS011;23934;47.998;9.832;2022-07-23T11:30:04;18.00;;;9.00;;
38123;SDS011;23934;47.998;9.832;2022-07-23T11:32:32;16.27;;;9.57;;
38123;SDS011;23934;47.998;9.832;2022-07-23T11:34:59;17.30;;;8.75;;
38123;SDS011;23934;47.998;9.832;2022-07-23T11:39:58;17.42;;;9.18;;
38123;SDS011;23934;47.998;9.832;2022-07-23T11:42:25;17.55;;;9.13;;
38123;SDS011;23934;47.998;9.832;2022-07-23T11:44:51;17.45;;;9.68;;
38123;SDS011;23934;47.998;9.832;2022-07-23T11:47:21;15.20;;;8.73;;
38123;SDS011;23934;47.998;9.832;2022-07-23T11:49:57;15.32;;;8.65;;
38123;SDS011;23934;47.998;9.832;2022-07-23T11:52:24;18.08;;;9.00;;
38123;SDS011;23934;47.998;9.832;2022-07-23T11:54:52;15.50;;;8.82;;
38123;SDS011;23934;47.998;9.832;2022-07-23T11:57:19;13.95;;;8.35;;
38123;SDS011;23934;47.998;9.832;2022-07-23T11:59:46;17.08;;;9.93;;
38123;SDS011;23934;47.998;9.832;2022-07-23T12:02:12;18.20;;;9.82;;
38123;SDS011;23934;47.998;9.832;2022-07-23T12:04:42;20.35;;;9.57;;
38123;SDS011;23934;47.998;9.832;2022-07-23T12:09:53;16.80;;;9.07;;
38123;SDS011;23934;47.998;9.832;2022-07-23T12:12:19;17.40;;;10.13;;
38123;SDS011;23934;47.998;9.832;2022-07-23T12:14:50;18.85;;;9.02;;
38123;SDS011;23934;47.998;9.832;2022-07-23T12:17:16;15.93;;;9.65;;
38123;SDS011;23934;47.998;9.832;2022-07-23T12:19:42;16.38;;;9.32;;
38123;SDS011;23934;47.998;9.832;2022-07-23T12:22:08;17.70;;;9.02;;
38123;SDS011;23934;47.998;9.832;2022-07-23T12:24:53;20.58;;;9.85;;
38123;SDS011;23934;47.998;9.832;2022-07-23T12:27:20;17.50;;;8.70;;
38123;SDS011;23934;47.998;9.832;2022-07-23T12:29:46;16.55;;;8.88;;
38123;SDS011;23934;47.998;9.832;2022-07-23T12:32:19;16.35;;;9.13;;
38123;SDS011;23934;47.998;9.832;2022-07-23T12:34:45;17.67;;;8.57;;
38123;SDS011;23934;47.998;9.832;2022-07-23T12:37:27;22.17;;;8.55;;
38123;SDS011;23934;47.998;9.832;2022-07-23T12:39:53;16.80;;;9.52;;
38123;SDS011;23934;47.998;9.832;2022-07-23T12:42:19;18.85;;;9.25;;
38123;SDS011;23934;47.998;9.832;2022-07-23T12:47:30;15.90;;;8.52;;
38123;SDS011;23934;47.998;9.832;2022-07-23T12:49:56;15.52;;;9.13;;
38123;SDS011;23934;47.998;9.832;2022-07-23T12:52:22;19.45;;;9.10;;
38123;SDS011;23934;47.998;9.832;2022-07-23T12:54:47;20.05;;;8.82;;
38123;SDS011;23934;47.998;9.832;2022-07-23T12:57:13;16.55;;;8.98;;
38123;SDS011;23934;47.998;9.832;2022-07-23T12:59:39;15.85;;;9.50;;
38123;SDS011;23934;47.998;9.832;2022-07-23T13:02:08;16.55;;;9.07;;
38123;SDS011;23934;47.998;9.832;2022-07-23T13:04:34;17.42;;;9.20;;
38123;SDS011;23934;47.998;9.832;2022-07-23T13:07:00;18.05;;;8.98;;
38123;SDS011;23934;47.998;9.832;2022-07-23T13:09:30;15.30;;;8.40;;
38123;SDS011;23934;47.998;9.832;2022-07-23T13:11:56;15.90;;;7.90;;
38123;SDS011;23934;47.998;9.832;2022-07-23T13:14:23;16.80;;;8.30;;
38123;SDS011;23934;47.998;9.832;2022-07-23T13:16:49;19.05;;;9.20;;
38123;SDS011;23934;47.998;9.832;2022-07-23T13:19:16;19.23;;;10.02;;
38123;SDS011;23934;47.998;9.832;2022-07-23T13:21:42;17.40;;;9.10;;
38123;SDS011;23934;47.998;9.832;2022-07-23T13:24:09;28.65;;;10.32;;
38123;SDS011;23934;47.998;9.832;2022-07-23T13:26:35;22.40;;;10.95;;
38123;SDS011;23934;47.998;9.832;2022-07-23T13:29:01;17.42;;;9.60;;
38123;SDS011;23934;47.998;9.832;2022-07-23T13:31:27;20.05;;;10.30;;
38123;SDS011;23934;47.998;9.832;2022-07-23T13:33:53;17.00;;;10.00;;
38123;SDS011;23934;47.998;9.832;2022-07-23T13:36:19;16.88;;;10.07;;
38123;SDS011;23934;47.998;9.832;2022-07-23T13:38:45;16.98;;;9.73;;
38123;SDS011;23934;47.998;9.832;2022-07-23T13:41:11;14.90;;;8.85;;
38123;SDS011;23934;47.998;9.832;2022-07-23T13:43:37;23.30;;;9.60;;
38123;SDS011;23934;47.998;9.832;2022-07-23T13:46:03;15.93;;;9.63;;
38123;SDS011;23934;47.998;9.832;2022-07-23T13:48:29;13.15;;;8.52;;
38123;SDS011;23934;47.998;9.832;2022-07-23T13:50:55;21.75;;;9.80;;
38123;SDS011;23934;47.998;9.832;2022-07-23T13:53:22;17.08;;;9.50;;
38123;SDS011;23934;47.998;9.832;2022-07-23T13:55:49;16.58;;;10.35;;
38123;SDS011;23934;47.998;9.832;2022-07-23T13:58:16;19.35;;;9.57;;
38123;SDS011;23934;47.998;9.832;2022-07-23T14:00:43;19.65;;;9.40;;
38123;SDS011;23934;47.998;9.832;2022-07-23T14:03:09;18.42;;;9.45;;
38123;SDS011;23934;47.998;9.832;2022-07-23T14:05:35;16.17;;;10.07;;
38123;SDS011;23934;47.998;9.832;2022-07-23T14:08:02;18.50;;;9.82;;
38123;SDS011;23934;47.998;9.832;2022-07-23T14:10:28;22.30;;;10.45;;
38123;SDS011;23934;47.998;9.832;2022-07-23T14:12:54;16.30;;;10.15;;
38123;SDS011;23934;47.998;9.832;2022-07-23T14:15:22;18.52;;;10.80;;
38123;SDS011;23934;47.998;9.832;2022-07-23T14:17:48;15.25;;;9.30;;
38123;SDS011;23934;47.998;9.832;2022-07-23T14:20:15;17.23;;;10.13;;
38123;SDS011;23934;47.998;9.832;2022-07-23T14:22:41;14.73;;;9.38;;
38123;SDS011;23934;47.998;9.832;2022-07-23T14:25:09;15.93;;;10.18;;
38123;SDS011;23934;47.998;9.832;2022-07-23T14:27:35;14.55;;;9.70;;
38123;SDS011;23934;47.998;9.832;2022-07-23T14:30:02;17.88;;;10.10;;
38123;SDS011;23934;47.998;9.832;2022-07-23T14:32:28;17.55;;;9.93;;
38123;SDS011;23934;47.998;9.832;2022-07-23T14:34:54;16.08;;;9.50;;
38123;SDS011;23934;47.998;9.832;2022-07-23T14:37:20;13.35;;;8.07;;
38123;SDS011;23934;47.998;9.832;2022-07-23T14:39:47;14.80;;;9.05;;
38123;SDS011;23934;47.998;9.832;2022-07-23T14:42:13;19.08;;;10.27;;
38123;SDS011;23934;47.998;9.832;2022-07-23T14:44:39;14.50;;;9.63;;
38123;SDS011;23934;47.998;9.832;2022-07-23T14:47:07;14.07;;;9.60;;
38123;SDS011;23934;47.998;9.832;2022-07-23T14:49:33;17.60;;;9.77;;
38123;SDS011;23934;47.998;9.832;2022-07-23T14:51:59;15.05;;;9.48;;
38123;SDS011;23934;47.998;9.832;2022-07-23T14:54:25;18.13;;;10.27;;
38123;SDS011;23934;47.998;9.832;2022-07-23T14:56:55;17.05;;;10.88;;
38123;SDS011;23934;47.998;9.832;2022-07-23T14:59:21;18.15;;;10.05;;
38123;SDS011;23934;47.998;9.832;2022-07-23T15:01:48;23.58;;;11.20;;
38123;SDS011;23934;47.998;9.832;2022-07-23T15:04:14;18.95;;;10.45;;
38123;SDS011;23934;47.998;9.832;2022-07-23T15:06:40;18.40;;;10.13;;
38123;SDS011;23934;47.998;9.832;2022-07-23T15:09:06;16.85;;;10.15;;
38123;SDS011;23934;47.998;9.832;2022-07-23T15:11:32;17.95;;;10.32;;
38123;SDS011;23934;47.998;9.832;2022-07-23T15:14:02;19.10;;;10.07;;
38123;SDS011;23934;47.998;9.832;2022-07-23T15:16:28;16.10;;;9.90;;
38123;SDS011;23934;47.998;9.832;2022-07-23T15:18:54;19.38;;;11.45;;